Time;durP1;ratioP1;P1;durP2;ratioP2;P2;SDS_P1;SDS_P2;PMS_P1;PMS_P2;Temp;Humidity;BMP_temperature;BMP_pressure;BME280_temperature;BME280_humidity;BME280_pressure;Samples;Min_cycle;Max_cycle;Signal;HPM_P1;HPM_P2
2023/05/16 00:01:34;;;;;;;;;;;8.80;99.90;;;;;;5082559;28;19931;-79
2023/05/16 00:04:02;;;;;;;;;;;8.70;99.90;;;;;;5060808;28;20529;-79
2023/05/16 00:06:30;;;;;;;;;;;8.70;99.90;;;;;;5061614;28;19932;-78
2023/05/16 00:08:57;;;;;;;;;;;8.70;99.90;;;;;;5072463;28;19974;-79
2023/05/16 00:11:24;;;;;;;;;;;8.70;99.90;;;;;;5081777;28;19928;-79
2023/05/16 00:13:51;;;;;;;;;;;8.70;99.90;;;;;;5082043;28;19935;-79
2023/05/16 00:16:20;;;;;;;;;;;8.70;99.90;;;;;;5065429;28;19932;-79
2023/05/16 00:18:47;;;;;;;;;;;8.70;99.90;;;;;;5081307;28;19944;-78
2023/05/16 00:21:14;;;;;;;;;;;8.70;99.90;;;;;;5065034;28;19924;-79
2023/05/16 00:23:41;;;;;;;;;;;8.70;99.90;;;;;;5080952;28;19928;-79
2023/05/16 00:26:07;;;;;;;;;;;8.70;99.90;;;;;;5078894;28;19943;-80
2023/05/16 00:28:34;;;;;;;;;;;8.70;99.90;;;;;;5079158;28;20014;-79
2023/05/16 00:31:01;;;;;;;;;;;8.70;99.90;;;;;;5063408;28;20311;-81
2023/05/16 00:33:28;;;;;;;;;;;8.80;99.90;;;;;;5077504;28;19981;-78
2023/05/16 00:35:55;;;;;;;;;;;8.80;99.90;;;;;;5061540;28;19935;-79
2023/05/16 00:38:21;;;;;;;;;;;8.80;99.90;;;;;;5064128;28;19978;-78
2023/05/16 00:40:48;;;;;;;;;;;8.70;99.90;;;;;;5083845;28;20471;-79
2023/05/16 00:43:15;;;;;;;;;;;8.70;99.90;;;;;;5083452;28;19931;-78
2023/05/16 00:45:41;;;;;;;;;;;8.60;99.90;;;;;;5085484;28;20447;-79
2023/05/16 00:48:09;;;;;;;;;;;8.60;99.90;;;;;;5085913;28;20416;-78
2023/05/16 00:50:35;;;;;;;;;;;8.60;99.90;;;;;;5085349;28;19924;-78
2023/05/16 00:53:02;;;;;;;;;;;8.60;99.90;;;;;;5084419;28;19924;-78
2023/05/16 00:55:29;;;;;;;;;;;8.70;99.90;;;;;;5068672;28;19963;-78
2023/05/16 00:57:56;;;;;;;;;;;8.70;99.90;;;;;;5083662;28;19993;-78
2023/05/16 01:00:23;;;;;;;;;;;8.80;99.90;;;;;;5066023;28;20252;-80
2023/05/16 01:02:52;;;;;;;;;;;8.80;99.90;;;;;;5080694;28;19924;-79
2023/05/16 01:05:19;;;;;;;;;;;8.90;99.90;;;;;;5081253;28;19927;-79
2023/05/16 01:07:46;;;;;;;;;;;9.00;99.90;;;;;;5073738;28;19971;-79
2023/05/16 01:10:13;;;;;;;;;;;9.00;99.90;;;;;;5063169;28;20707;-79
2023/05/16 01:12:43;;;;;;;;;;;9.10;99.90;;;;;;5062162;28;20314;-79
2023/05/16 01:15:14;;;;;;;;;;;9.10;99.90;;;;;;5072001;28;20200;-79
2023/05/16 01:18:00;;;;;;;;;;;9.10;99.90;;;;;;5067711;28;19934;-79
2023/05/16 01:20:47;;;;;;;;;;;9.10;99.90;;;;;;5085473;28;19928;-78
2023/05/16 01:23:13;;;;;;;;;;;9.20;99.90;;;;;;5085393;28;19955;-79
2023/05/16 01:25:55;;;;;;;;;;;9.20;99.90;;;;;;5085211;28;19924;-79
2023/05/16 01:28:22;;;;;;;;;;;9.20;99.90;;;;;;5084055;28;19950;-79
2023/05/16 01:30:49;;;;;;;;;;;9.20;99.90;;;;;;5081064;28;19929;-79
2023/05/16 01:33:16;;;;;;;;;;;9.20;99.90;;;;;;5085116;28;19924;-79
2023/05/16 01:35:46;;;;;;;;;;;9.10;99.90;;;;;;5086395;28;20343;-79
2023/05/16 01:38:15;;;;;;;;;;;9.10;99.90;;;;;;5084042;28;20365;-79
2023/05/16 01:40:51;;;;;;;;;;;9.10;99.90;;;;;;5088624;28;19924;-79
2023/05/16 01:43:20;;;;;;;;;;;9.00;99.90;;;;;;5088826;28;19928;-79
2023/05/16 01:45:49;;;;;;;;;;;9.00;99.90;;;;;;5052568;28;19924;-79
2023/05/16 01:48:16;;;;;;;;;;;9.00;99.90;;;;;;5078587;28;19924;-79
2023/05/16 01:50:46;;;;;;;;;;;9.00;99.90;;;;;;5066685;28;19980;-79
2023/05/16 01:53:33;;;;;;;;;;;8.90;99.90;;;;;;5082425;28;20704;-78
2023/05/16 01:56:00;;;;;;;;;;;8.90;99.90;;;;;;5060095;28;20392;-79
2023/05/16 01:58:28;;;;;;;;;;;8.90;99.90;;;;;;5066155;28;19958;-79
2023/05/16 02:01:06;;;;;;;;;;;9.00;99.90;;;;;;5067144;28;20003;-79
2023/05/16 02:03:33;;;;;;;;;;;9.00;99.90;;;;;;5079041;28;19976;-79
2023/05/16 02:06:00;;;;;;;;;;;8.90;99.90;;;;;;5086905;28;19924;-79
2023/05/16 02:08:27;;;;;;;;;;;8.90;99.90;;;;;;5085580;28;20010;-79
2023/05/16 02:10:53;;;;;;;;;;;8.90;99.90;;;;;;5087117;28;19950;-79
2023/05/16 02:13:20;;;;;;;;;;;8.90;99.90;;;;;;5066038;28;19925;-80
2023/05/16 02:15:47;;;;;;;;;;;8.90;99.90;;;;;;5067652;28;19924;-79
2023/05/16 02:18:16;;;;;;;;;;;8.80;99.90;;;;;;5065509;28;20350;-79
2023/05/16 02:20:42;;;;;;;;;;;8.70;99.90;;;;;;5066367;28;19986;-79
2023/05/16 02:23:09;;;;;;;;;;;8.60;99.90;;;;;;5065122;28;19942;-78
2023/05/16 02:25:36;;;;;;;;;;;8.60;99.90;;;;;;5066418;28;19931;-79
2023/05/16 02:28:03;;;;;;;;;;;8.50;99.90;;;;;;5065626;28;20230;-79
2023/05/16 02:30:30;;;;;;;;;;;8.50;99.90;;;;;;5066776;28;20019;-78
2023/05/16 02:32:57;;;;;;;;;;;8.40;99.90;;;;;;5072015;28;20020;-79
2023/05/16 02:35:23;;;;;;;;;;;8.40;99.90;;;;;;5086960;28;19924;-78
2023/05/16 02:37:50;;;;;;;;;;;8.30;99.90;;;;;;5085481;28;19931;-79
2023/05/16 02:40:18;;;;;;;;;;;8.30;99.90;;;;;;5069866;28;20502;-78
2023/05/16 02:42:44;;;;;;;;;;;8.20;99.90;;;;;;5087118;28;20027;-78
2023/05/16 02:45:11;;;;;;;;;;;8.20;99.90;;;;;;5087754;28;20264;-78
2023/05/16 02:47:38;;;;;;;;;;;8.20;99.90;;;;;;5068733;28;19932;-78
2023/05/16 02:50:05;;;;;;;;;;;8.10;99.90;;;;;;5068622;28;20338;-78
2023/05/16 02:52:31;;;;;;;;;;;8.10;99.90;;;;;;5086939;28;20007;-78
2023/05/16 02:54:58;;;;;;;;;;;8.00;99.90;;;;;;5068894;28;19928;-78
2023/05/16 02:57:45;;;;;;;;;;;7.90;99.90;;;;;;5072109;28;19924;-78
2023/05/16 03:00:13;;;;;;;;;;;7.80;99.90;;;;;;5086101;28;19951;-79
2023/05/16 03:02:42;;;;;;;;;;;7.80;99.90;;;;;;5085565;28;19985;-78
2023/05/16 03:05:10;;;;;;;;;;;7.80;99.90;;;;;;5068235;28;19924;-78
2023/05/16 03:07:36;;;;;;;;;;;7.60;99.90;;;;;;5086431;28;20392;-78
2023/05/16 03:10:03;;;;;;;;;;;7.50;99.90;;;;;;5101871;28;19930;-78
2023/05/16 03:12:30;;;;;;;;;;;7.50;99.90;;;;;;5068747;28;20434;-79
2023/05/16 03:14:57;;;;;;;;;;;7.40;99.90;;;;;;5069169;28;20377;-78
2023/05/16 03:17:24;;;;;;;;;;;7.40;99.90;;;;;;5068790;28;20383;-78
2023/05/16 03:19:51;;;;;;;;;;;7.40;99.90;;;;;;5086111;28;19928;-78
2023/05/16 03:22:19;;;;;;;;;;;7.50;99.90;;;;;;5085257;28;19930;-78
2023/05/16 03:24:46;;;;;;;;;;;7.50;99.90;;;;;;5085841;28;19967;-78
2023/05/16 03:27:13;;;;;;;;;;;7.50;99.90;;;;;;5085130;28;19924;-78
2023/05/16 03:29:40;;;;;;;;;;;7.40;99.90;;;;;;5085404;28;19936;-79
2023/05/16 03:32:07;;;;;;;;;;;7.40;99.90;;;;;;5085325;28;19924;-78
2023/05/16 03:34:33;;;;;;;;;;;7.40;99.90;;;;;;5082051;28;20561;-78
2023/05/16 03:37:00;;;;;;;;;;;7.40;99.90;;;;;;5047838;28;20318;-79
2023/05/16 03:39:27;;;;;;;;;;;7.30;99.90;;;;;;5064986;28;20007;-79
2023/05/16 03:41:56;;;;;;;;;;;7.20;99.90;;;;;;5064612;28;19924;-78
2023/05/16 03:44:23;;;;;;;;;;;7.20;99.90;;;;;;5081841;28;19928;-79
2023/05/16 03:46:51;;;;;;;;;;;7.20;99.90;;;;;;5084009;28;20576;-79
2023/05/16 03:49:20;;;;;;;;;;;7.10;99.90;;;;;;5067803;28;19947;-78
2023/05/16 03:51:46;;;;;;;;;;;7.10;99.90;;;;;;5067887;28;20031;-79
2023/05/16 03:54:14;;;;;;;;;;;7.10;99.90;;;;;;5068109;28;19924;-79
2023/05/16 03:56:40;;;;;;;;;;;7.00;99.90;;;;;;5084504;28;20023;-78
2023/05/16 03:59:07;;;;;;;;;;;7.10;99.90;;;;;;5085059;28;20304;-78
2023/05/16 04:01:34;;;;;;;;;;;7.00;99.90;;;;;;5086077;28;19939;-79
2023/05/16 04:04:01;;;;;;;;;;;7.00;99.90;;;;;;5083682;28;19978;-79
2023/05/16 04:06:28;;;;;;;;;;;7.00;99.90;;;;;;5068075;28;20622;-78
2023/05/16 04:08:54;;;;;;;;;;;7.00;99.90;;;;;;5084237;28;19931;-78
2023/05/16 04:11:21;;;;;;;;;;;7.00;99.90;;;;;;5084853;28;20015;-78
2023/05/16 04:13:48;;;;;;;;;;;7.00;99.90;;;;;;5084902;28;19924;-79
2023/05/16 04:16:15;;;;;;;;;;;6.90;99.90;;;;;;5085336;28;20019;-79
2023/05/16 04:18:41;;;;;;;;;;;6.80;99.90;;;;;;5069798;28;19992;-79
2023/05/16 04:21:10;;;;;;;;;;;6.80;99.90;;;;;;5088801;28;19931;-79
2023/05/16 04:23:37;;;;;;;;;;;6.80;99.90;;;;;;5088517;28;19955;-79
2023/05/16 04:26:03;;;;;;;;;;;6.80;99.90;;;;;;5072119;28;19924;-78
2023/05/16 04:28:31;;;;;;;;;;;6.80;99.90;;;;;;5071000;28;20578;-78
2023/05/16 04:30:58;;;;;;;;;;;6.80;99.90;;;;;;5079037;28;19924;-79
2023/05/16 04:33:24;;;;;;;;;;;6.80;99.90;;;;;;5057576;28;19943;-78
2023/05/16 04:35:53;;;;;;;;;;;6.80;99.90;;;;;;5053989;28;20011;-78
2023/05/16 04:38:20;;;;;;;;;;;6.80;99.90;;;;;;5067007;28;20003;-78
2023/05/16 04:40:49;;;;;;;;;;;6.80;99.90;;;;;;5052160;28;19975;-79
2023/05/16 04:43:16;;;;;;;;;;;6.80;99.90;;;;;;5082320;28;19924;-79
2023/05/16 04:45:44;;;;;;;;;;;6.80;99.90;;;;;;5088204;28;20550;-79
2023/05/16 04:48:11;;;;;;;;;;;6.90;99.90;;;;;;5085820;28;19928;-78
2023/05/16 04:50:37;;;;;;;;;;;6.90;99.90;;;;;;5065751;28;19971;-79
2023/05/16 04:53:04;;;;;;;;;;;6.90;99.90;;;;;;5069008;28;19928;-79
2023/05/16 04:55:31;;;;;;;;;;;6.90;99.90;;;;;;5069831;28;20479;-77
2023/05/16 04:57:58;;;;;;;;;;;7.00;99.90;;;;;;5086618;28;20022;-79
2023/05/16 05:00:25;;;;;;;;;;;7.00;99.90;;;;;;5058046;28;20011;-79
2023/05/16 05:02:53;;;;;;;;;;;7.00;99.90;;;;;;5054399;28;20384;-79
2023/05/16 05:05:20;;;;;;;;;;;7.10;99.90;;;;;;5078791;28;20078;-79
2023/05/16 05:07:47;;;;;;;;;;;7.20;99.90;;;;;;5056366;28;19935;-79
2023/05/16 05:10:14;;;;;;;;;;;7.30;99.90;;;;;;5078326;28;19939;-78
2023/05/16 05:12:41;;;;;;;;;;;7.40;99.90;;;;;;5081513;28;19981;-79
2023/05/16 05:15:08;;;;;;;;;;;7.40;99.90;;;;;;5061926;28;20419;-78
2023/05/16 05:17:36;;;;;;;;;;;7.50;99.90;;;;;;5064458;28;19926;-79
2023/05/16 05:20:07;;;;;;;;;;;7.50;99.90;;;;;;5062101;28;19932;-80
2023/05/16 05:22:34;;;;;;;;;;;7.60;99.90;;;;;;5083942;28;19924;-79
2023/05/16 05:25:00;;;;;;;;;;;7.60;99.90;;;;;;5081400;28;19928;-79
2023/05/16 05:27:28;;;;;;;;;;;7.70;99.90;;;;;;5081064;28;20295;-79
2023/05/16 05:29:55;;;;;;;;;;;7.80;99.90;;;;;;5080879;28;20031;-80
2023/05/16 05:32:21;;;;;;;;;;;7.90;99.90;;;;;;5083215;28;19967;-80
2023/05/16 05:34:48;;;;;;;;;;;8.00;99.90;;;;;;5081273;28;19925;-80
2023/05/16 05:37:15;;;;;;;;;;;8.10;99.90;;;;;;5080194;28;19972;-80
2023/05/16 05:39:42;;;;;;;;;;;8.10;99.90;;;;;;5067679;28;20011;-80
2023/05/16 05:42:10;;;;;;;;;;;8.20;99.90;;;;;;5097344;28;19924;-81
2023/05/16 05:44:37;;;;;;;;;;;8.30;99.90;;;;;;5079913;28;19924;-80
2023/05/16 05:47:07;;;;;;;;;;;8.30;99.90;;;;;;5079079;28;19932;-80
2023/05/16 05:49:34;;;;;;;;;;;8.40;99.90;;;;;;5070889;28;20001;-81
2023/05/16 05:52:01;;;;;;;;;;;8.50;99.90;;;;;;5061005;28;19930;-80
2023/05/16 05:54:29;;;;;;;;;;;8.60;99.90;;;;;;5077113;28;20006;-80
2023/05/16 05:56:56;;;;;;;;;;;8.70;99.90;;;;;;5077224;28;19928;-80
2023/05/16 05:59:23;;;;;;;;;;;8.70;99.90;;;;;;5068545;28;19924;-80
2023/05/16 06:01:53;;;;;;;;;;;8.80;99.90;;;;;;5077961;28;19987;-80
2023/05/16 06:04:20;;;;;;;;;;;8.80;99.90;;;;;;5090869;28;19950;-81
2023/05/16 06:06:47;;;;;;;;;;;8.90;99.90;;;;;;5083351;28;20014;-81
2023/05/16 06:09:14;;;;;;;;;;;9.00;99.90;;;;;;5095063;28;20330;-81
2023/05/16 06:11:43;;;;;;;;;;;9.10;99.90;;;;;;5069355;28;20293;-81
2023/05/16 06:14:10;;;;;;;;;;;9.10;99.90;;;;;;5081067;28;20440;-81
2023/05/16 06:16:39;;;;;;;;;;;9.20;99.90;;;;;;5080657;28;20012;-78
2023/05/16 06:19:06;;;;;;;;;;;9.30;99.90;;;;;;5056595;28;20034;-81
2023/05/16 06:21:32;;;;;;;;;;;9.40;99.90;;;;;;5061348;28;19935;-81
2023/05/16 06:23:59;;;;;;;;;;;9.40;99.90;;;;;;5059443;28;20351;-80
2023/05/16 06:26:26;;;;;;;;;;;9.50;99.90;;;;;;5060363;28;19928;-82
2023/05/16 06:28:53;;;;;;;;;;;9.50;99.90;;;;;;5044728;28;20028;-81
2023/05/16 06:31:20;;;;;;;;;;;9.60;99.90;;;;;;5064495;28;20353;-80
2023/05/16 06:33:47;;;;;;;;;;;9.60;99.90;;;;;;5082973;28;19935;-81
2023/05/16 06:36:13;;;;;;;;;;;9.70;99.90;;;;;;5066672;28;19980;-80
2023/05/16 06:38:40;;;;;;;;;;;9.70;99.90;;;;;;5066608;28;19939;-81
2023/05/16 06:41:07;;;;;;;;;;;9.80;99.90;;;;;;5063067;28;19964;-80
2023/05/16 06:43:34;;;;;;;;;;;9.90;99.90;;;;;;5077537;28;20060;-81
2023/05/16 06:46:01;;;;;;;;;;;10.00;99.90;;;;;;5066305;28;19935;-81
2023/05/16 06:48:28;;;;;;;;;;;10.10;99.90;;;;;;5045199;28;20461;-80
2023/05/16 06:50:56;;;;;;;;;;;10.20;99.90;;;;;;5080174;28;19934;-81
2023/05/16 06:53:23;;;;;;;;;;;10.30;99.90;;;;;;5065608;28;20032;-81
2023/05/16 06:55:50;;;;;;;;;;;10.30;99.90;;;;;;5067260;28;19931;-81
2023/05/16 06:58:17;;;;;;;;;;;10.40;99.90;;;;;;5066252;28;19931;-80
2023/05/16 07:00:44;;;;;;;;;;;10.40;99.90;;;;;;5066377;28;19927;-80
2023/05/16 07:03:10;;;;;;;;;;;10.50;99.90;;;;;;5079201;28;19932;-81
2023/05/16 07:05:37;;;;;;;;;;;10.60;99.90;;;;;;5063533;28;19924;-79
2023/05/16 07:08:04;;;;;;;;;;;10.70;99.90;;;;;;5081052;28;19928;-80
2023/05/16 07:10:33;;;;;;;;;;;10.80;99.90;;;;;;5077624;28;19947;-81
2023/05/16 07:13:00;;;;;;;;;;;10.90;99.90;;;;;;5072063;28;19975;-80
2023/05/16 07:15:27;;;;;;;;;;;11.00;99.90;;;;;;5083881;28;20453;-81
2023/05/16 07:17:54;;;;;;;;;;;11.10;99.90;;;;;;5082736;28;19989;-81
2023/05/16 07:20:21;;;;;;;;;;;11.10;99.90;;;;;;5079083;28;19928;-81
2023/05/16 07:22:48;;;;;;;;;;;11.10;99.90;;;;;;5064760;28;19925;-81
2023/05/16 07:25:15;;;;;;;;;;;11.20;99.90;;;;;;5079834;28;20057;-81
2023/05/16 07:27:43;;;;;;;;;;;11.20;99.90;;;;;;5063152;28;19924;-81
2023/05/16 07:30:11;;;;;;;;;;;11.30;99.90;;;;;;5063521;28;19944;-81
2023/05/16 07:32:38;;;;;;;;;;;11.40;99.90;;;;;;5066219;28;19950;-81
2023/05/16 07:35:05;;;;;;;;;;;11.50;99.90;;;;;;5065493;28;19924;-81
2023/05/16 07:37:32;;;;;;;;;;;11.60;99.90;;;;;;5081751;28;20600;-81
2023/05/16 07:39:59;;;;;;;;;;;11.60;99.90;;;;;;5082405;28;19928;-81
2023/05/16 07:42:26;;;;;;;;;;;11.60;99.90;;;;;;5082427;28;19924;-81
2023/05/16 07:44:53;;;;;;;;;;;11.60;99.90;;;;;;5066080;28;19936;-81
2023/05/16 07:47:19;;;;;;;;;;;11.60;99.90;;;;;;5065786;28;19957;-81
2023/05/16 07:49:46;;;;;;;;;;;11.70;99.90;;;;;;5064899;28;19924;-81
2023/05/16 07:52:13;;;;;;;;;;;11.70;99.90;;;;;;5065740;28;19932;-80
2023/05/16 07:54:40;;;;;;;;;;;11.80;99.90;;;;;;5086948;28;19924;-81
2023/05/16 07:57:07;;;;;;;;;;;11.80;99.90;;;;;;5086607;28;19993;-81
2023/05/16 07:59:33;;;;;;;;;;;11.90;99.90;;;;;;5066787;28;20426;-81
2023/05/16 08:02:00;;;;;;;;;;;12.00;99.90;;;;;;5067455;28;19929;-81
2023/05/16 08:04:27;;;;;;;;;;;12.10;99.90;;;;;;5066290;28;20015;-81
2023/05/16 08:06:54;;;;;;;;;;;12.20;99.90;;;;;;5065719;28;19928;-81
2023/05/16 08:09:21;;;;;;;;;;;12.20;99.90;;;;;;5068371;28;19959;-80
2023/05/16 08:11:48;;;;;;;;;;;12.20;99.90;;;;;;5086389;28;20001;-81
2023/05/16 08:14:15;;;;;;;;;;;12.40;99.90;;;;;;5066027;28;19924;-80
2023/05/16 08:16:41;;;;;;;;;;;12.40;99.90;;;;;;5066771;28;19928;-81
2023/05/16 08:19:08;;;;;;;;;;;12.60;99.90;;;;;;5066115;28;20000;-81
2023/05/16 08:21:35;;;;;;;;;;;12.60;99.90;;;;;;5065416;28;20005;-81
2023/05/16 08:24:04;;;;;;;;;;;12.60;99.90;;;;;;5062152;28;19925;-81
2023/05/16 08:26:31;;;;;;;;;;;12.70;99.90;;;;;;5062575;28;20395;-81
2023/05/16 08:28:58;;;;;;;;;;;12.70;99.90;;;;;;5065381;28;20009;-81
2023/05/16 08:31:25;;;;;;;;;;;12.80;99.90;;;;;;5066121;28;19929;-80
2023/05/16 08:33:51;;;;;;;;;;;12.90;99.90;;;;;;5081163;28;19957;-81
2023/05/16 08:36:19;;;;;;;;;;;12.90;99.90;;;;;;5066995;28;19924;-81
2023/05/16 08:38:46;;;;;;;;;;;13.00;99.90;;;;;;5065463;28;20353;-82
2023/05/16 08:41:13;;;;;;;;;;;13.00;99.90;;;;;;5066074;28;19928;-81
2023/05/16 08:43:40;;;;;;;;;;;13.10;99.90;;;;;;5085846;28;20311;-81
2023/05/16 08:46:07;;;;;;;;;;;13.30;99.90;;;;;;5085903;28;19928;-81
2023/05/16 08:48:34;;;;;;;;;;;13.40;99.90;;;;;;5084941;28;20534;-81
2023/05/16 08:51:01;;;;;;;;;;;13.40;99.90;;;;;;5061708;28;20443;-82
2023/05/16 08:53:34;;;;;;;;;;;13.40;99.90;;;;;;5075148;28;19979;-81
2023/05/16 08:56:01;;;;;;;;;;;13.40;99.90;;;;;;5045670;28;20061;-81
2023/05/16 08:58:28;;;;;;;;;;;13.40;99.90;;;;;;5061380;28;19931;-81
2023/05/16 09:00:55;;;;;;;;;;;13.50;99.90;;;;;;5063773;28;20508;-81
2023/05/16 09:03:23;;;;;;;;;;;13.70;99.90;;;;;;5077574;28;19924;-83
2023/05/16 09:05:51;;;;;;;;;;;13.70;99.90;;;;;;5074238;28;20335;-82
2023/05/16 09:08:19;;;;;;;;;;;13.90;99.90;;;;;;5051689;28;19929;-82
2023/05/16 09:10:46;;;;;;;;;;;14.00;99.90;;;;;;5076460;28;19928;-82
2023/05/16 09:13:13;;;;;;;;;;;13.90;99.90;;;;;;5078491;28;19931;-82
2023/05/16 09:15:40;;;;;;;;;;;13.90;99.90;;;;;;5074368;28;19977;-81
2023/05/16 09:18:10;;;;;;;;;;;14.00;99.90;;;;;;5061680;28;20331;-81
2023/05/16 09:20:40;;;;;;;;;;;14.10;99.90;;;;;;5058204;28;19924;-81
2023/05/16 09:23:06;;;;;;;;;;;14.20;99.90;;;;;;5062292;28;19928;-82
2023/05/16 09:25:33;;;;;;;;;;;14.30;99.90;;;;;;5067797;28;19928;-82
2023/05/16 09:28:01;;;;;;;;;;;14.40;99.90;;;;;;5067724;28;20414;-82
2023/05/16 09:30:30;;;;;;;;;;;14.50;99.90;;;;;;5079444;28;19928;-81
2023/05/16 09:32:57;;;;;;;;;;;14.50;99.90;;;;;;5074557;28;19939;-82
2023/05/16 09:35:25;;;;;;;;;;;14.60;99.90;;;;;;5082867;28;19934;-83
2023/05/16 09:38:14;;;;;;;;;;;14.70;99.90;;;;;;5097457;28;19924;-82
2023/05/16 09:40:41;;;;;;;;;;;14.70;99.90;;;;;;5093165;28;20030;-82
2023/05/16 09:43:08;;;;;;;;;;;14.80;99.90;;;;;;5079096;28;19935;-84
2023/05/16 09:45:35;;;;;;;;;;;14.90;99.90;;;;;;5091284;28;19958;-83
2023/05/16 09:48:05;;;;;;;;;;;15.10;99.60;;;;;;5068764;28;19924;-85
2023/05/16 09:50:33;;;;;;;;;;;15.20;99.70;;;;;;5085555;28;19940;-84
2023/05/16 09:53:00;;;;;;;;;;;15.40;98.90;;;;;;5083829;28;20022;-83
2023/05/16 09:55:27;;;;;;;;;;;15.50;98.60;;;;;;5086456;28;20005;-84
2023/05/16 09:57:54;;;;;;;;;;;15.60;98.40;;;;;;5086724;28;19936;-84
2023/05/16 10:00:21;;;;;;;;;;;15.70;98.60;;;;;;5085495;28;20015;-82
2023/05/16 10:02:48;;;;;;;;;;;15.80;97.90;;;;;;5084842;28;19924;-83
2023/05/16 10:05:16;;;;;;;;;;;16.00;98.60;;;;;;5084535;28;20024;-83
2023/05/16 10:07:43;;;;;;;;;;;16.10;97.40;;;;;;5068401;28;19974;-84
2023/05/16 10:10:10;;;;;;;;;;;16.00;97.20;;;;;;5067474;28;20390;-83
2023/05/16 10:12:37;;;;;;;;;;;15.80;97.70;;;;;;5084221;28;19924;-83
2023/05/16 10:15:04;;;;;;;;;;;15.70;97.40;;;;;;5083516;28;20012;-83
2023/05/16 10:17:31;;;;;;;;;;;15.70;97.10;;;;;;5066863;28;19931;-83
2023/05/16 10:20:04;;;;;;;;;;;15.80;96.90;;;;;;5066568;28;20051;-83
2023/05/16 10:22:34;;;;;;;;;;;16.10;97.80;;;;;;5083938;28;19936;-84
2023/05/16 10:25:01;;;;;;;;;;;16.40;96.80;;;;;;5064421;28;20089;-82
2023/05/16 10:27:28;;;;;;;;;;;16.80;96.40;;;;;;5082084;28;19924;-83
2023/05/16 10:29:57;;;;;;;;;;;17.10;95.60;;;;;;5081012;28;19974;-83
2023/05/16 10:32:24;;;;;;;;;;;16.90;95.60;;;;;;5060608;28;19928;-83
2023/05/16 10:34:51;;;;;;;;;;;16.70;95.30;;;;;;5081080;28;20299;-83
2023/05/16 10:37:18;;;;;;;;;;;16.40;94.60;;;;;;5080286;28;19935;-83
2023/05/16 10:39:45;;;;;;;;;;;16.30;94.50;;;;;;5081050;28;20001;-83
2023/05/16 10:42:16;;;;;;;;;;;16.60;94.20;;;;;;5083341;28;19924;-82
2023/05/16 10:44:43;;;;;;;;;;;16.90;95.70;;;;;;5063548;28;19931;-82
2023/05/16 10:47:23;;;;;;;;;;;17.40;93.90;;;;;;5046920;28;20062;-83
2023/05/16 10:49:50;;;;;;;;;;;17.90;93.70;;;;;;5061348;28;20484;-84
2023/05/16 10:52:17;;;;;;;;;;;18.20;92.80;;;;;;5080439;28;19996;-83
2023/05/16 10:54:49;;;;;;;;;;;18.30;93.10;;;;;;5079820;28;20281;-81
2023/05/16 10:57:22;;;;;;;;;;;18.00;92.90;;;;;;5066739;28;19924;-81
2023/05/16 10:59:49;;;;;;;;;;;17.80;93.30;;;;;;5078208;28;19932;-82
2023/05/16 11:02:23;;;;;;;;;;;17.70;93.70;;;;;;5057838;28;20422;-82
2023/05/16 11:04:52;;;;;;;;;;;17.70;92.30;;;;;;5071592;28;21566;-80
2023/05/16 11:07:20;;;;;;;;;;;17.50;92.80;;;;;;5070168;28;20679;-80
2023/05/16 11:10:05;;;;;;;;;;;17.80;92.00;;;;;;5070031;28;20046;-81
2023/05/16 11:12:36;;;;;;;;;;;18.20;92.90;;;;;;5074554;28;19932;-80
2023/05/16 11:15:16;;;;;;;;;;;18.20;92.20;;;;;;5076821;28;19985;-81
2023/05/16 11:17:43;;;;;;;;;;;17.80;91.90;;;;;;5087950;28;19933;-81
2023/05/16 11:20:25;;;;;;;;;;;17.50;91.90;;;;;;5058475;28;20615;-80
2023/05/16 11:23:12;;;;;;;;;;;17.70;91.10;;;;;;5076151;28;20374;-80
2023/05/16 11:25:39;;;;;;;;;;;17.70;91.50;;;;;;5078006;28;20008;-80
2023/05/16 11:28:07;;;;;;;;;;;18.00;91.20;;;;;;5075938;28;19927;-80
2023/05/16 11:30:33;;;;;;;;;;;18.30;90.10;;;;;;5076216;28;19947;-82
2023/05/16 11:33:00;;;;;;;;;;;18.60;88.00;;;;;;5058886;28;19927;-80
2023/05/16 11:35:27;;;;;;;;;;;19.00;90.20;;;;;;5059704;28;20453;-80
2023/05/16 11:37:56;;;;;;;;;;;19.20;90.40;;;;;;5076013;28;19928;-80
2023/05/16 11:40:23;;;;;;;;;;;18.70;90.80;;;;;;5076828;28;19934;-81
2023/05/16 11:42:50;;;;;;;;;;;19.10;88.40;;;;;;5056963;28;19929;-81
2023/05/16 11:45:17;;;;;;;;;;;19.10;89.90;;;;;;5078126;28;20489;-81
2023/05/16 11:47:46;;;;;;;;;;;19.20;88.10;;;;;;5075948;28;20297;-81
2023/05/16 11:50:17;;;;;;;;;;;19.40;86.30;;;;;;5072232;28;20473;-82
2023/05/16 11:52:45;;;;;;;;;;;19.70;86.00;;;;;;5060530;28;20440;-81
2023/05/16 11:55:12;;;;;;;;;;;19.90;85.00;;;;;;5076217;28;19928;-81
2023/05/16 11:57:42;;;;;;;;;;;20.00;84.10;;;;;;5062533;28;19944;-81
2023/05/16 12:00:13;;;;;;;;;;;20.30;83.90;;;;;;5062305;28;19932;-81
2023/05/16 12:02:39;;;;;;;;;;;20.80;84.10;;;;;;5077809;28;20000;-80
2023/05/16 12:05:07;;;;;;;;;;;20.50;82.80;;;;;;5058392;28;20315;-81
2023/05/16 12:07:35;;;;;;;;;;;20.80;82.60;;;;;;5077407;28;20054;-81
2023/05/16 12:10:06;;;;;;;;;;;20.60;82.60;;;;;;5064915;28;19928;-82
2023/05/16 12:12:34;;;;;;;;;;;20.40;82.10;;;;;;5065563;28;19932;-81
2023/05/16 12:15:07;;;;;;;;;;;20.70;83.70;;;;;;5082219;28;20420;-81
2023/05/16 12:17:34;;;;;;;;;;;20.90;79.50;;;;;;5081830;28;19930;-80
2023/05/16 12:20:04;;;;;;;;;;;21.10;80.30;;;;;;5078316;28;20531;-81
2023/05/16 12:22:31;;;;;;;;;;;21.40;79.60;;;;;;5090117;28;19971;-81
2023/05/16 12:24:59;;;;;;;;;;;21.70;79.00;;;;;;5078742;28;19975;-81
2023/05/16 12:27:28;;;;;;;;;;;22.20;77.80;;;;;;5078278;28;20685;-81
2023/05/16 12:29:56;;;;;;;;;;;22.10;77.20;;;;;;5085890;28;19977;-82
2023/05/16 12:32:23;;;;;;;;;;;22.00;76.40;;;;;;5081545;28;19958;-81
2023/05/16 12:34:51;;;;;;;;;;;22.00;76.40;;;;;;5060092;28;20007;-82
2023/05/16 12:37:19;;;;;;;;;;;22.10;75.60;;;;;;5070415;28;19979;-82
2023/05/16 12:39:47;;;;;;;;;;;22.30;75.00;;;;;;5049919;28;19935;-81
2023/05/16 12:42:13;;;;;;;;;;;22.50;75.20;;;;;;5060615;28;20346;-82
2023/05/16 12:44:43;;;;;;;;;;;22.10;74.00;;;;;;5072442;28;19932;-81
2023/05/16 12:47:10;;;;;;;;;;;22.30;74.20;;;;;;5073212;28;19990;-81
2023/05/16 12:49:44;;;;;;;;;;;22.60;72.60;;;;;;5078964;28;19934;-80
2023/05/16 12:52:16;;;;;;;;;;;22.20;73.00;;;;;;5078396;28;20213;-80
2023/05/16 12:54:43;;;;;;;;;;;22.40;72.50;;;;;;5069460;28;20406;-80
2023/05/16 12:57:10;;;;;;;;;;;22.70;73.70;;;;;;5058576;28;21749;-80
2023/05/16 12:59:37;;;;;;;;;;;22.50;72.90;;;;;;5062101;28;20748;-81
2023/05/16 13:02:04;;;;;;;;;;;22.50;73.40;;;;;;5083258;28;19934;-80
2023/05/16 13:04:31;;;;;;;;;;;23.00;73.60;;;;;;5060006;28;20296;-81
2023/05/16 13:06:57;;;;;;;;;;;23.40;71.80;;;;;;5075950;28;19980;-81
2023/05/16 13:09:25;;;;;;;;;;;23.20;72.40;;;;;;5073065;28;20007;-81
2023/05/16 13:11:58;;;;;;;;;;;22.90;71.90;;;;;;5076845;28;20450;-82
2023/05/16 13:14:26;;;;;;;;;;;23.10;70.90;;;;;;5083604;28;19962;-81
2023/05/16 13:16:53;;;;;;;;;;;23.40;70.10;;;;;;5084852;28;20040;-80
2023/05/16 13:19:22;;;;;;;;;;;23.60;70.70;;;;;;5067031;28;20386;-83
2023/05/16 13:21:50;;;;;;;;;;;23.90;69.30;;;;;;5055350;28;19982;-82
2023/05/16 13:24:16;;;;;;;;;;;24.20;69.40;;;;;;5081019;28;19939;-82
2023/05/16 13:26:43;;;;;;;;;;;24.20;69.40;;;;;;5078069;28;20011;-83
2023/05/16 13:29:11;;;;;;;;;;;24.00;69.30;;;;;;5080206;28;19982;-84
2023/05/16 13:31:37;;;;;;;;;;;24.30;69.50;;;;;;5074606;28;19943;-82
2023/05/16 13:34:05;;;;;;;;;;;24.50;70.30;;;;;;5054283;28;20728;-84
2023/05/16 13:36:32;;;;;;;;;;;24.80;69.20;;;;;;5041730;28;19938;-84
2023/05/16 13:39:19;;;;;;;;;;;25.00;68.40;;;;;;5058834;28;20411;-83
2023/05/16 13:41:47;;;;;;;;;;;25.10;67.30;;;;;;5078795;28;20413;-83
2023/05/16 13:44:15;;;;;;;;;;;25.00;67.80;;;;;;5079517;28;20469;-83
2023/05/16 13:46:42;;;;;;;;;;;24.20;67.90;;;;;;5062455;28;19928;-82
2023/05/16 13:49:08;;;;;;;;;;;24.40;69.20;;;;;;5061565;28;19928;-83
2023/05/16 13:51:35;;;;;;;;;;;24.50;67.80;;;;;;5078049;28;20396;-82
2023/05/16 13:54:02;;;;;;;;;;;24.80;66.90;;;;;;5083630;28;19935;-84
2023/05/16 13:56:29;;;;;;;;;;;24.80;68.10;;;;;;5088548;28;19932;-83
2023/05/16 13:58:56;;;;;;;;;;;24.30;67.70;;;;;;5077354;28;20017;-83
2023/05/16 14:01:31;;;;;;;;;;;24.90;68.20;;;;;;5064485;28;19934;-83
2023/05/16 14:03:58;;;;;;;;;;;25.30;68.30;;;;;;5081400;28;19928;-83
2023/05/16 14:06:25;;;;;;;;;;;25.70;66.30;;;;;;5077683;28;20449;-83
2023/05/16 14:08:52;;;;;;;;;;;26.00;66.70;;;;;;5074743;28;19967;-82
2023/05/16 14:11:21;;;;;;;;;;;25.90;66.10;;;;;;5079057;28;20718;-83
2023/05/16 14:13:48;;;;;;;;;;;25.40;66.20;;;;;;5056859;28;19929;-83
2023/05/16 14:16:15;;;;;;;;;;;25.00;67.40;;;;;;5095374;28;20331;-83
2023/05/16 14:18:42;;;;;;;;;;;25.20;67.30;;;;;;5077862;28;19936;-83
2023/05/16 14:21:09;;;;;;;;;;;25.90;67.20;;;;;;5053858;28;19936;-83
2023/05/16 14:23:36;;;;;;;;;;;25.80;64.80;;;;;;5077443;28;19928;-83
2023/05/16 14:26:03;;;;;;;;;;;25.50;65.00;;;;;;5082473;28;19928;-83
2023/05/16 14:28:33;;;;;;;;;;;25.90;66.60;;;;;;5073278;28;19967;-83